createdAt,value
2018-11-10T00:00:36.651Z,50.67
2018-11-10T00:03:06.336Z,46.60
2018-11-10T00:05:34.853Z,44.00
2018-11-10T00:08:03.871Z,45.73
2018-11-10T00:10:32.339Z,40.37
2018-11-10T00:13:00.665Z,34.00
2018-11-10T00:15:29.114Z,38.90
2018-11-10T00:17:57.519Z,39.40
2018-11-10T00:20:31.017Z,46.53
2018-11-10T00:22:59.614Z,36.00
2018-11-10T00:25:27.938Z,37.73
2018-11-10T00:27:56.301Z,38.17
2018-11-10T00:30:24.682Z,39.50
2018-11-10T00:32:53.148Z,35.87
2018-11-10T00:35:21.646Z,32.47
2018-11-10T00:37:49.954Z,39.00
2018-11-10T00:40:18.427Z,34.90
2018-11-10T00:42:46.859Z,37.43
2018-11-10T00:45:15.278Z,32.80
2018-11-10T00:47:43.688Z,33.97
2018-11-10T00:50:12.164Z,36.17
2018-11-10T00:52:40.638Z,35.30
2018-11-10T00:55:09.307Z,41.40
2018-11-10T00:57:37.781Z,33.63
2018-11-10T01:00:06.695Z,32.80
2018-11-10T01:02:35.143Z,34.43
2018-11-10T01:05:03.567Z,38.57
2018-11-10T01:07:32.473Z,36.40
2018-11-10T01:10:01.592Z,34.10
2018-11-10T01:12:30.017Z,32.27
2018-11-10T01:14:58.402Z,29.50
2018-11-10T01:17:26.728Z,34.83
2018-11-10T01:19:55.081Z,30.80
2018-11-10T01:22:23.553Z,35.97
2018-11-10T01:24:51.909Z,33.80
2018-11-10T01:27:20.383Z,35.73
2018-11-10T01:29:49.357Z,32.27
2018-11-10T01:32:17.741Z,31.37
2018-11-10T01:34:46.179Z,34.47
2018-11-10T01:37:14.544Z,31.40
2018-11-10T01:39:43.005Z,36.07
2018-11-10T01:42:11.407Z,35.70
2018-11-10T01:44:39.832Z,40.20
2018-11-10T01:47:08.244Z,38.47
2018-11-10T01:49:36.635Z,33.03
2018-11-10T01:52:05.065Z,31.17
2018-11-10T01:54:33.463Z,36.50
2018-11-10T01:57:01.910Z,36.73
2018-11-10T01:59:30.292Z,35.77
2018-11-10T02:01:58.722Z,38.60
2018-11-10T02:04:27.099Z,35.53
2018-11-10T02:06:55.516Z,36.00
2018-11-10T02:09:23.954Z,44.50
2018-11-10T02:11:52.386Z,46.70
2018-11-10T02:14:20.759Z,31.03
2018-11-10T02:16:49.195Z,34.47
2018-11-10T02:19:17.559Z,33.43
2018-11-10T02:21:45.939Z,44.27
2018-11-10T02:24:14.456Z,39.80
2018-11-10T02:26:42.806Z,34.53
2018-11-10T02:29:11.473Z,33.80
2018-11-10T02:31:39.858Z,30.13
2018-11-10T02:34:08.199Z,34.17
2018-11-10T02:36:36.627Z,32.03
2018-11-10T02:39:07.359Z,31.17
2018-11-10T02:41:35.814Z,30.60
2018-11-10T02:44:04.197Z,29.33
2018-11-10T02:46:32.493Z,35.37
2018-11-10T02:49:00.839Z,35.67
2018-11-10T02:51:29.432Z,27.93
2018-11-10T02:53:57.809Z,32.10
2018-11-10T02:56:26.200Z,29.53
2018-11-10T02:58:54.552Z,29.00
2018-11-10T03:01:22.913Z,33.30
2018-11-10T03:03:51.271Z,33.43
2018-11-10T03:06:19.700Z,31.10
2018-11-10T03:08:48.050Z,28.67
2018-11-10T03:11:16.371Z,29.33
2018-11-10T03:13:44.641Z,33.83
2018-11-10T03:16:12.954Z,27.47
2018-11-10T03:18:41.263Z,26.20
2018-11-10T03:21:09.722Z,30.00
2018-11-10T03:23:38.115Z,31.40
2018-11-10T03:26:06.482Z,30.07
2018-11-10T03:28:34.827Z,29.43
2018-11-10T03:31:03.288Z,33.53
2018-11-10T03:33:31.673Z,30.13
2018-11-10T03:36:00.032Z,28.50
2018-11-10T03:38:28.479Z,33.77
2018-11-10T03:40:56.863Z,29.97
2018-11-10T03:43:25.224Z,29.87
2018-11-10T03:45:53.616Z,32.10
2018-11-10T03:48:22.024Z,28.57
2018-11-10T03:50:50.411Z,26.57
2018-11-10T03:53:18.829Z,23.47
2018-11-10T03:55:47.212Z,32.23
2018-11-10T03:58:15.513Z,25.27
2018-11-10T04:00:43.905Z,32.07
2018-11-10T04:03:12.232Z,30.07
2018-11-10T04:05:40.667Z,30.57
2018-11-10T04:08:09.026Z,24.00
2018-11-10T04:10:37.421Z,26.23
2018-11-10T04:13:05.978Z,27.20
2018-11-10T04:15:34.380Z,38.67
2018-11-10T04:18:02.767Z,37.47
2018-11-10T04:20:31.187Z,25.93
2018-11-10T04:22:59.523Z,26.00
2018-11-10T04:25:27.919Z,27.70
2018-11-10T04:27:56.306Z,38.73
2018-11-10T04:30:24.599Z,35.50
2018-11-10T04:32:52.957Z,26.40
2018-11-10T04:35:21.345Z,32.67
2018-11-10T04:37:49.781Z,34.90
2018-11-10T04:40:18.186Z,27.20
2018-11-10T04:42:46.607Z,29.07
2018-11-10T04:45:15.026Z,26.23
2018-11-10T04:47:43.443Z,33.00
2018-11-10T04:50:12.565Z,27.10
2018-11-10T04:52:41.549Z,28.27
2018-11-10T04:55:10.947Z,30.93
2018-11-10T04:57:39.642Z,27.53
2018-11-10T05:00:10.457Z,30.23
2018-11-10T05:02:38.847Z,26.90
2018-11-10T05:05:07.615Z,40.07
2018-11-10T05:07:36.143Z,30.80
2018-11-10T05:10:05.149Z,27.30
2018-11-10T05:12:33.546Z,27.53
2018-11-10T05:15:01.989Z,23.40
2018-11-10T05:17:30.447Z,24.97
2018-11-10T05:19:58.875Z,30.17
2018-11-10T05:22:27.279Z,26.70
2018-11-10T05:24:55.634Z,28.70
2018-11-10T05:27:23.984Z,23.00
2018-11-10T05:29:52.339Z,29.30
2018-11-10T05:32:20.727Z,34.10
2018-11-10T05:34:49.141Z,23.70
2018-11-10T05:37:17.467Z,23.87
2018-11-10T05:39:45.825Z,26.30
2018-11-10T05:42:14.122Z,31.90
2018-11-10T05:44:42.504Z,25.70
2018-11-10T05:47:10.903Z,21.63
2018-11-10T05:49:39.316Z,25.37
2018-11-10T05:52:07.822Z,23.93
2018-11-10T05:54:36.204Z,22.17
2018-11-10T05:57:04.643Z,20.63
2018-11-10T05:59:33.014Z,25.93
2018-11-10T06:02:01.417Z,22.13
2018-11-10T06:04:29.785Z,22.70
2018-11-10T06:06:58.108Z,18.63
2018-11-10T06:09:26.496Z,20.50
2018-11-10T06:11:54.852Z,20.17
2018-11-10T06:14:23.199Z,24.70
2018-11-10T06:16:51.605Z,22.67
2018-11-10T06:19:20.015Z,22.50
2018-11-10T06:21:48.379Z,20.73
2018-11-10T06:24:16.757Z,21.23
2018-11-10T06:26:45.128Z,23.90
2018-11-10T06:29:13.520Z,19.70
2018-11-10T06:31:41.893Z,19.53
2018-11-10T06:34:10.297Z,24.57
2018-11-10T06:36:38.718Z,23.47
2018-11-10T06:39:09.357Z,21.83
2018-11-10T06:41:37.727Z,26.60
2018-11-10T06:44:06.640Z,27.83
2018-11-10T06:46:35.033Z,26.97
2018-11-10T06:49:03.458Z,25.40
2018-11-10T06:51:31.808Z,23.20
2018-11-10T06:54:00.223Z,25.57
2018-11-10T06:56:28.595Z,22.50
2018-11-10T06:58:57.029Z,29.23
2018-11-10T07:01:25.344Z,20.93
2018-11-10T07:03:53.796Z,23.63
2018-11-10T07:06:22.185Z,26.87
2018-11-10T07:08:50.572Z,25.53
2018-11-10T07:11:18.969Z,24.07
2018-11-10T07:13:47.370Z,34.93
2018-11-10T07:16:15.800Z,24.77
2018-11-10T07:18:44.097Z,35.13
2018-11-10T07:21:12.590Z,26.57
2018-11-10T07:23:40.966Z,24.87
2018-11-10T07:26:09.432Z,22.90
2018-11-10T07:28:37.823Z,23.57
2018-11-10T07:31:06.353Z,25.43
2018-11-10T07:33:34.744Z,22.73
2018-11-10T07:36:03.121Z,23.93
2018-11-10T07:38:31.486Z,22.13
2018-11-10T07:40:59.820Z,22.20
2018-11-10T07:43:28.296Z,30.03
2018-11-10T07:45:56.601Z,22.60
2018-11-10T07:48:24.997Z,27.30
2018-11-10T07:50:53.450Z,28.40
2018-11-10T07:53:21.761Z,22.67
2018-11-10T07:55:50.257Z,26.67
2018-11-10T07:58:18.671Z,22.90
2018-11-10T08:00:47.010Z,21.80
2018-11-10T08:03:15.421Z,24.50
2018-11-10T08:05:43.795Z,24.60
2018-11-10T08:08:12.241Z,20.80
2018-11-10T08:10:40.643Z,19.60
2018-11-10T08:13:09.076Z,22.10
2018-11-10T08:15:37.463Z,19.97
2018-11-10T08:18:05.879Z,18.50
2018-11-10T08:20:34.309Z,20.13
2018-11-10T08:23:02.738Z,19.40
2018-11-10T08:25:31.161Z,19.43
2018-11-10T08:27:59.544Z,20.60
2018-11-10T08:30:27.938Z,19.10
2018-11-10T08:32:56.366Z,19.07
2018-11-10T08:35:24.712Z,18.80
2018-11-10T08:37:53.069Z,18.67
2018-11-10T08:40:21.528Z,19.00
2018-11-10T08:42:49.901Z,17.47
2018-11-10T08:45:18.231Z,20.43
2018-11-10T08:47:46.570Z,19.97
2018-11-10T08:50:16.055Z,17.70
2018-11-10T08:52:44.519Z,19.67
2018-11-10T08:55:32.988Z,16.33
2018-11-10T08:58:02.636Z,17.50
2018-11-10T09:00:31.387Z,16.57
2018-11-10T09:02:59.716Z,16.90
2018-11-10T09:05:28.151Z,16.17
2018-11-10T09:07:56.553Z,17.30
2018-11-10T09:10:24.957Z,16.23
2018-11-10T09:12:53.327Z,15.30
2018-11-10T09:15:21.685Z,15.33
2018-11-10T09:17:50.116Z,16.70
2018-11-10T09:20:18.488Z,14.90
2018-11-10T09:22:46.905Z,15.23
2018-11-10T09:25:16.721Z,16.10
2018-11-10T09:27:45.595Z,15.97
2018-11-10T09:30:15.304Z,16.03
2018-11-10T09:32:43.658Z,14.93
2018-11-10T09:35:13.088Z,14.30
2018-11-10T09:37:41.667Z,15.17
2018-11-10T09:40:12.429Z,15.47
2018-11-10T09:42:41.162Z,15.27
2018-11-10T09:45:12.302Z,15.03
2018-11-10T09:47:41.667Z,13.40
2018-11-10T09:50:12.153Z,14.63
2018-11-10T09:52:40.866Z,13.80
2018-11-10T09:55:09.339Z,14.53
2018-11-10T09:57:38.116Z,13.50
2018-11-10T10:00:14.067Z,12.93
2018-11-10T10:02:42.968Z,11.33
2018-11-10T10:05:11.443Z,11.03
2018-11-10T10:07:40.830Z,11.20
2018-11-10T10:10:10.862Z,12.07
2018-11-10T10:12:39.291Z,11.10
2018-11-10T10:15:09.637Z,10.93
2018-11-10T10:17:38.119Z,11.13
2018-11-10T10:20:09.257Z,11.40
2018-11-10T10:22:37.725Z,12.20
2018-11-10T10:25:07.585Z,12.67
2018-11-10T10:27:36.310Z,11.40
2018-11-10T10:30:06.685Z,10.23
2018-11-10T10:32:35.113Z,10.33
2018-11-10T10:35:03.658Z,9.60
2018-11-10T10:37:31.908Z,10.63
2018-11-10T10:40:00.232Z,10.83
2018-11-10T10:42:28.631Z,10.23
2018-11-10T10:44:57.066Z,12.00
2018-11-10T10:47:25.856Z,9.70
2018-11-10T10:49:54.305Z,9.37
2018-11-10T10:52:22.751Z,8.30
2018-11-10T10:54:51.059Z,8.90
2018-11-10T10:57:19.445Z,11.00
2018-11-10T10:59:47.762Z,11.23
2018-11-10T11:02:21.460Z,10.80
2018-11-10T11:04:56.344Z,11.03
2018-11-10T11:07:26.057Z,11.50
2018-11-10T11:09:55.549Z,11.70
2018-11-10T11:12:23.875Z,10.40
2018-11-10T11:14:52.318Z,10.97
2018-11-10T11:17:20.772Z,11.30
2018-11-10T11:19:49.168Z,10.90
2018-11-10T11:22:17.604Z,10.47
2018-11-10T11:24:45.963Z,11.70
2018-11-10T11:27:14.354Z,11.57
2018-11-10T11:29:42.955Z,10.57
2018-11-10T11:32:11.319Z,10.50
2018-11-10T11:34:39.685Z,12.37
2018-11-10T11:37:08.456Z,10.60
2018-11-10T11:39:36.843Z,11.10
2018-11-10T11:42:05.511Z,10.93
2018-11-10T11:44:33.981Z,10.70
2018-11-10T11:47:02.327Z,12.33
2018-11-10T11:49:30.741Z,13.10
2018-11-10T11:51:59.113Z,13.30
2018-11-10T11:54:27.505Z,12.00
2018-11-10T11:56:55.890Z,12.80
2018-11-10T11:59:24.294Z,13.07
2018-11-10T12:01:52.675Z,18.80
2018-11-10T12:04:21.079Z,14.00
2018-11-10T12:06:49.417Z,12.20
2018-11-10T12:09:17.834Z,12.37
2018-11-10T12:11:46.196Z,13.63
2018-11-10T12:14:14.660Z,13.77
2018-11-10T12:16:43.106Z,12.30
2018-11-10T12:19:11.423Z,12.93
2018-11-10T12:21:39.807Z,14.70
2018-11-10T12:24:08.271Z,14.00
2018-11-10T12:26:36.746Z,13.80
2018-11-10T12:29:05.664Z,15.13
2018-11-10T12:31:34.049Z,14.70
2018-11-10T12:34:02.434Z,14.63
2018-11-10T12:36:30.789Z,16.27
2018-11-10T12:38:59.364Z,15.20
2018-11-10T12:41:27.647Z,15.37
2018-11-10T12:43:55.943Z,14.47
2018-11-10T12:46:24.613Z,16.60
2018-11-10T12:48:53.028Z,15.80
2018-11-10T12:51:21.431Z,14.17
2018-11-10T12:53:49.825Z,22.63
2018-11-10T12:56:18.265Z,15.50
2018-11-10T12:58:46.637Z,15.17
2018-11-10T13:01:14.945Z,14.40
2018-11-10T13:03:43.351Z,14.67
2018-11-10T13:06:11.695Z,13.93
2018-11-10T13:08:40.162Z,13.70
2018-11-10T13:11:08.656Z,12.70
2018-11-10T13:13:37.207Z,12.90
2018-11-10T13:16:05.613Z,13.60
2018-11-10T13:18:33.994Z,12.83
2018-11-10T13:21:02.496Z,12.23
2018-11-10T13:23:30.969Z,12.20
2018-11-10T13:25:59.340Z,13.23
2018-11-10T13:28:27.729Z,11.60
2018-11-10T13:30:56.247Z,12.40
2018-11-10T13:33:24.607Z,15.77
2018-11-10T13:35:53.043Z,13.30
2018-11-10T13:38:21.621Z,12.20
2018-11-10T13:40:50.101Z,12.20
2018-11-10T13:43:18.634Z,12.40
2018-11-10T13:45:47.019Z,12.90
2018-11-10T13:48:15.445Z,11.83
2018-11-10T13:50:43.967Z,11.80
2018-11-10T13:53:12.321Z,11.80
2018-11-10T13:55:40.722Z,12.33
2018-11-10T13:58:09.104Z,12.37
2018-11-10T14:00:37.485Z,12.53
2018-11-10T14:03:05.949Z,11.20
2018-11-10T14:05:34.390Z,12.43
2018-11-10T14:08:02.641Z,12.60
2018-11-10T14:10:31.027Z,12.13
2018-11-10T14:12:59.409Z,11.67
2018-11-10T14:15:27.786Z,12.30
2018-11-10T14:17:56.258Z,11.80
2018-11-10T14:20:24.699Z,12.37
2018-11-10T14:22:52.938Z,12.30
2018-11-10T14:25:21.356Z,13.27
2018-11-10T14:27:49.821Z,17.47
2018-11-10T14:30:18.623Z,16.23
2018-11-10T14:32:47.479Z,19.93
2018-11-10T14:35:15.865Z,21.63
2018-11-10T14:37:44.209Z,22.67
2018-11-10T14:40:14.049Z,23.27
2018-11-10T14:42:43.076Z,22.33
2018-11-10T14:45:12.851Z,24.90
2018-11-10T14:47:41.730Z,26.97
2018-11-10T14:50:11.041Z,28.90
2018-11-10T14:52:39.765Z,27.20
2018-11-10T14:55:08.773Z,27.20
2018-11-10T14:57:37.473Z,28.03
2018-11-10T15:00:09.892Z,32.33
2018-11-10T15:02:38.324Z,27.30
2018-11-10T15:05:09.637Z,28.20
2018-11-10T15:07:38.133Z,22.20
2018-11-10T15:10:08.513Z,25.33
2018-11-10T15:12:36.935Z,25.80
2018-11-10T15:15:06.526Z,28.73
2018-11-10T15:17:35.305Z,31.40
2018-11-10T15:20:04.135Z,33.13
2018-11-10T15:22:32.545Z,29.57
2018-11-10T15:25:03.548Z,35.57
2018-11-10T15:27:35.311Z,32.47
2018-11-10T15:30:08.872Z,34.97
2018-11-10T15:32:40.175Z,34.20
2018-11-10T15:35:13.476Z,31.73
2018-11-10T15:37:46.833Z,29.77
2018-11-10T15:40:17.319Z,38.00
2018-11-10T15:42:48.077Z,33.60
2018-11-10T15:47:59.187Z,32.83
2018-11-10T15:50:32.662Z,36.37
2018-11-10T15:53:04.080Z,35.93
2018-11-10T15:55:35.085Z,33.87
2018-11-10T15:58:07.607Z,33.63
2018-11-10T16:00:38.881Z,36.80
2018-11-10T16:03:10.414Z,35.10
2018-11-10T16:05:43.749Z,35.17
2018-11-10T16:08:14.383Z,35.33
2018-11-10T16:13:37.270Z,35.83
2018-11-10T16:16:08.785Z,37.83
2018-11-10T16:18:39.383Z,38.47
2018-11-10T16:21:10.677Z,36.33
2018-11-10T16:23:41.710Z,39.20
2018-11-10T16:26:16.138Z,41.20
2018-11-10T16:28:48.409Z,39.73
2018-11-10T16:31:19.331Z,40.73
2018-11-10T16:33:52.480Z,38.40
2018-11-10T16:36:25.985Z,37.07
2018-11-10T16:39:04.796Z,37.20
2018-11-10T16:41:36.948Z,34.67
2018-11-10T16:44:07.345Z,35.37
2018-11-10T16:46:38.809Z,37.30
2018-11-10T16:49:08.728Z,36.20
2018-11-10T16:51:40.312Z,35.97
2018-11-10T16:54:11.611Z,36.10
2018-11-10T16:56:41.243Z,34.30
2018-11-10T16:59:17.019Z,33.10
2018-11-10T17:01:49.418Z,32.53
2018-11-10T17:04:20.853Z,33.90
2018-11-10T17:06:54.576Z,33.50
2018-11-10T17:09:27.523Z,32.97
2018-11-10T17:12:00.309Z,32.17
2018-11-10T17:14:33.782Z,32.13
2018-11-10T17:17:05.842Z,29.63
2018-11-10T17:19:34.465Z,31.57
2018-11-10T17:22:03.142Z,27.70
2018-11-10T17:24:31.539Z,31.10
2018-11-10T17:27:00.414Z,28.67
2018-11-10T17:29:29.309Z,30.60
2018-11-10T17:31:57.976Z,27.30
2018-11-10T17:34:26.778Z,27.90
2018-11-10T17:36:55.685Z,27.17
2018-11-10T17:39:24.465Z,29.17
2018-11-10T17:41:53.261Z,33.13
2018-11-10T17:44:21.736Z,31.13
2018-11-10T17:46:50.392Z,32.87
2018-11-10T17:49:18.939Z,28.10
2018-11-10T17:51:47.806Z,26.50
2018-11-10T17:54:16.434Z,32.57
2018-11-10T17:56:44.911Z,34.00
2018-11-10T17:59:13.365Z,33.00
2018-11-10T18:01:41.912Z,30.07
2018-11-10T18:04:10.134Z,36.73
2018-11-10T18:06:38.529Z,31.00
2018-11-10T18:09:08.749Z,29.07
2018-11-10T18:11:37.162Z,32.33
2018-11-10T18:14:06.714Z,31.40
2018-11-10T18:16:35.090Z,31.77
2018-11-10T18:19:03.549Z,30.97
2018-11-10T18:21:32.089Z,30.17
2018-11-10T18:24:00.589Z,30.87
2018-11-10T18:26:29.016Z,31.57
2018-11-10T18:28:57.525Z,30.60
2018-11-10T18:31:25.775Z,35.17
2018-11-10T18:33:54.136Z,31.27
2018-11-10T18:36:22.535Z,34.10
2018-11-10T18:38:51.049Z,30.23
2018-11-10T18:41:19.418Z,29.30
2018-11-10T18:43:47.799Z,35.20
2018-11-10T18:46:16.262Z,32.17
2018-11-10T18:48:44.668Z,35.63
2018-11-10T18:51:13.063Z,28.50
2018-11-10T18:53:41.704Z,34.83
2018-11-10T18:56:09.982Z,32.63
2018-11-10T18:58:38.390Z,33.60
2018-11-10T19:01:06.868Z,36.00
2018-11-10T19:03:35.285Z,34.90
2018-11-10T19:06:03.752Z,29.80
2018-11-10T19:08:37.539Z,31.17
2018-11-10T19:11:10.752Z,33.40
2018-11-10T19:13:43.854Z,35.90
2018-11-10T19:16:16.089Z,32.27
2018-11-10T19:18:48.947Z,35.40
2018-11-10T19:21:20.871Z,30.10
2018-11-10T19:23:53.457Z,36.83
2018-11-10T19:26:26.838Z,35.87
2018-11-10T19:28:58.559Z,33.90
2018-11-10T19:31:31.429Z,38.37
2018-11-10T19:34:03.156Z,34.97
2018-11-10T19:36:34.743Z,34.67
2018-11-10T19:39:09.740Z,41.20
2018-11-10T19:41:43.431Z,35.00
2018-11-10T19:44:17.192Z,39.70
2018-11-10T19:46:51.014Z,41.20
2018-11-10T19:49:24.814Z,34.33
2018-11-10T19:51:57.368Z,36.90
2018-11-10T19:54:30.362Z,41.60
2018-11-10T19:57:02.642Z,44.53
2018-11-10T19:59:35.114Z,43.07
2018-11-10T20:02:06.542Z,52.40
2018-11-10T20:04:38.172Z,53.10
2018-11-10T20:07:10.508Z,46.23
2018-11-10T20:09:43.146Z,52.93
2018-11-10T20:12:15.415Z,47.73
2018-11-10T20:14:47.982Z,49.60
2018-11-10T20:17:18.976Z,53.07
2018-11-10T20:19:51.859Z,51.90
2018-11-10T20:22:23.475Z,56.67
2018-11-10T20:24:54.881Z,51.80
2018-11-10T20:27:27.309Z,66.43
2018-11-10T20:29:59.429Z,62.00
2018-11-10T20:32:32.066Z,56.47
2018-11-10T20:35:07.963Z,67.23
2018-11-10T20:37:39.110Z,62.63
2018-11-10T20:40:14.213Z,54.03
2018-11-10T20:42:46.142Z,45.50
2018-11-10T20:45:19.395Z,48.93
2018-11-10T20:47:51.902Z,54.33
2018-11-10T20:50:24.935Z,46.57
2018-11-10T20:52:58.687Z,46.83
2018-11-10T20:55:31.308Z,41.90
2018-11-10T20:58:05.436Z,40.33
2018-11-10T21:00:39.559Z,50.80
2018-11-10T21:03:11.733Z,47.93
2018-11-10T21:05:43.807Z,43.07
2018-11-10T21:08:17.046Z,37.37
2018-11-10T21:10:48.994Z,40.47
2018-11-10T21:13:21.070Z,41.97
2018-11-10T21:15:57.014Z,47.87
2018-11-10T21:18:29.003Z,48.00
2018-11-10T21:21:02.973Z,44.07
2018-11-10T21:23:38.202Z,74.90
2018-11-10T21:26:08.368Z,54.97
2018-11-10T21:28:37.311Z,44.20
2018-11-10T21:31:09.010Z,38.27
2018-11-10T21:33:40.887Z,43.33
2018-11-10T21:36:12.368Z,39.10
2018-11-10T21:38:44.387Z,37.17
2018-11-10T21:41:17.538Z,42.40
2018-11-10T21:43:49.995Z,39.40
2018-11-10T21:46:18.529Z,45.73
2018-11-10T21:48:51.551Z,40.97
2018-11-10T21:51:23.511Z,43.30
2018-11-10T21:53:54.875Z,44.97
2018-11-10T21:56:26.669Z,39.87
2018-11-10T21:58:58.560Z,37.00
2018-11-10T22:01:30.398Z,33.23
2018-11-10T22:04:01.987Z,34.47
2018-11-10T22:06:34.128Z,38.77
2018-11-10T22:09:07.620Z,42.23
2018-11-10T22:11:39.436Z,39.50
2018-11-10T22:14:11.634Z,38.67
2018-11-10T22:16:43.609Z,28.73
2018-11-10T22:19:15.118Z,36.20
2018-11-10T22:21:47.308Z,36.47
2018-11-10T22:24:19.116Z,36.43
2018-11-10T22:26:50.734Z,32.30
2018-11-10T22:29:23.635Z,45.40
2018-11-10T22:31:55.195Z,35.40
2018-11-10T22:34:27.218Z,32.20
2018-11-10T22:36:59.464Z,42.57
2018-11-10T22:39:32.143Z,37.90
2018-11-10T22:42:03.932Z,31.17
2018-11-10T22:44:36.418Z,34.23
2018-11-10T22:47:10.018Z,38.77
2018-11-10T22:49:42.454Z,35.50
2018-11-10T22:52:14.764Z,34.77
2018-11-10T22:54:48.286Z,34.47
2018-11-10T22:57:20.625Z,34.77
2018-11-10T22:59:52.202Z,31.03
2018-11-10T23:02:25.998Z,28.87
2018-11-10T23:04:54.450Z,33.97
2018-11-10T23:07:22.867Z,30.63
2018-11-10T23:09:51.650Z,31.47
2018-11-10T23:12:20.088Z,28.33
2018-11-10T23:14:48.443Z,29.40
2018-11-10T23:17:16.907Z,32.53
2018-11-10T23:19:45.280Z,26.33
2018-11-10T23:22:13.630Z,35.13
2018-11-10T23:24:41.963Z,27.90
2018-11-10T23:27:10.477Z,29.37
2018-11-10T23:29:38.847Z,27.90
2018-11-10T23:32:07.299Z,34.73
2018-11-10T23:34:35.680Z,29.83
2018-11-10T23:37:04.412Z,31.80
2018-11-10T23:39:32.734Z,28.30
2018-11-10T23:42:01.113Z,29.53
2018-11-10T23:44:29.540Z,29.53
2018-11-10T23:46:57.947Z,29.57
2018-11-10T23:49:26.354Z,27.57
2018-11-10T23:51:54.803Z,26.63
2018-11-10T23:54:23.164Z,27.40
2018-11-10T23:56:51.516Z,31.87
2018-11-10T23:59:19.929Z,25.13
